createdAt,value
2017-09-20T00:00:48.649Z,99.99
2017-09-20T00:02:02.521Z,99.99
2017-09-20T00:03:16.685Z,99.99
2017-09-20T00:04:32.266Z,99.99
2017-09-20T00:05:48.164Z,99.99
2017-09-20T00:07:03.627Z,99.99
2017-09-20T00:08:18.780Z,99.99
2017-09-20T00:09:33.096Z,99.99
2017-09-20T00:10:47.960Z,99.99
2017-09-20T00:12:03.957Z,99.99
2017-09-20T00:13:18.627Z,99.99
2017-09-20T00:14:33.161Z,99.99
2017-09-20T00:15:47.805Z,99.99
2017-09-20T00:17:03.041Z,99.99
2017-09-20T00:18:20.066Z,99.99
2017-09-20T00:19:35.100Z,99.99
2017-09-20T00:20:51.123Z,99.99
2017-09-20T00:22:04.758Z,99.99
2017-09-20T00:23:18.581Z,99.99
2017-09-20T00:24:32.111Z,99.99
2017-09-20T00:25:47.773Z,99.99
2017-09-20T00:27:02.569Z,99.99
2017-09-20T00:28:16.286Z,99.99
2017-09-20T00:29:30.145Z,99.99
2017-09-20T00:30:43.661Z,99.99
2017-09-20T00:31:57.292Z,99.99
2017-09-20T00:33:10.818Z,99.99
2017-09-20T00:34:24.988Z,99.99
2017-09-20T00:35:39.175Z,99.99
2017-09-20T00:36:52.674Z,99.99
2017-09-20T00:38:06.163Z,99.99
2017-09-20T00:39:19.824Z,99.99
2017-09-20T00:40:33.366Z,99.99
2017-09-20T00:41:48.168Z,99.99
2017-09-20T00:43:01.689Z,99.99
2017-09-20T00:44:15.162Z,99.99
2017-09-20T00:45:29.362Z,99.99
2017-09-20T00:46:43.881Z,99.99
2017-09-20T00:47:57.764Z,99.99
2017-09-20T00:49:11.291Z,99.99
2017-09-20T00:50:25.677Z,99.99
2017-09-20T00:51:39.814Z,99.99
2017-09-20T00:52:53.652Z,99.99
2017-09-20T00:54:07.764Z,99.99
2017-09-20T00:55:21.448Z,99.99
2017-09-20T00:56:35.627Z,99.99
2017-09-20T00:57:49.197Z,99.99
2017-09-20T00:59:03.059Z,99.99
2017-09-20T01:00:16.901Z,99.99
2017-09-20T01:01:30.931Z,99.99
2017-09-20T01:02:45.417Z,99.99
2017-09-20T01:03:59.515Z,99.99
2017-09-20T01:05:13.437Z,99.99
2017-09-20T01:06:27.272Z,99.99
2017-09-20T01:07:41.011Z,99.99
2017-09-20T01:08:54.568Z,99.99
2017-09-20T01:10:08.077Z,99.99
2017-09-20T01:11:21.574Z,99.99
2017-09-20T01:12:35.428Z,99.99
2017-09-20T01:13:48.924Z,99.99
2017-09-20T01:15:02.635Z,99.99
2017-09-20T01:16:16.147Z,99.99
2017-09-20T01:17:30.115Z,99.99
2017-09-20T01:18:43.912Z,99.99
2017-09-20T01:19:57.393Z,99.99
2017-09-20T01:21:11.517Z,99.99
2017-09-20T01:22:25.141Z,99.99
2017-09-20T01:23:38.984Z,99.99
2017-09-20T01:24:52.901Z,99.99
2017-09-20T01:26:06.389Z,99.99
2017-09-20T01:27:19.875Z,99.99
2017-09-20T01:28:33.376Z,99.99
2017-09-20T01:29:46.989Z,99.99
2017-09-20T01:31:00.859Z,99.99
2017-09-20T01:32:14.370Z,99.99
2017-09-20T01:33:28.202Z,99.99
2017-09-20T01:34:42.394Z,99.99
2017-09-20T01:35:55.943Z,99.99
2017-09-20T01:37:09.881Z,99.99
2017-09-20T01:38:23.384Z,99.99
2017-09-20T01:39:36.871Z,99.99
2017-09-20T01:40:50.396Z,99.99
2017-09-20T01:42:03.950Z,99.99
2017-09-20T01:43:17.901Z,99.99
2017-09-20T01:44:31.779Z,99.99
2017-09-20T01:45:45.378Z,99.99
2017-09-20T01:46:58.852Z,99.99
2017-09-20T01:48:12.376Z,99.99
2017-09-20T01:49:26.551Z,99.99
2017-09-20T01:50:40.100Z,99.99
2017-09-20T01:51:53.726Z,99.99
2017-09-20T01:53:07.216Z,99.99
2017-09-20T01:54:20.739Z,99.99
2017-09-20T01:55:34.526Z,99.99
2017-09-20T01:56:48.045Z,99.99
2017-09-20T01:58:01.593Z,99.99
2017-09-20T01:59:15.101Z,99.99
2017-09-20T02:00:28.602Z,99.99
2017-09-20T02:01:42.450Z,99.99
2017-09-20T02:02:56.282Z,99.99
2017-09-20T02:04:09.838Z,99.99
2017-09-20T02:05:23.325Z,99.99
2017-09-20T02:06:36.893Z,99.99
2017-09-20T02:07:51.261Z,99.99
2017-09-20T02:09:04.745Z,99.99
2017-09-20T02:10:18.259Z,99.99
2017-09-20T02:11:31.762Z,99.99
2017-09-20T02:12:45.249Z,99.99
2017-09-20T02:13:59.108Z,99.99
2017-09-20T02:15:13.321Z,99.99
2017-09-20T02:16:27.130Z,99.99
2017-09-20T02:17:40.671Z,99.99
2017-09-20T02:18:54.246Z,99.99
2017-09-20T02:20:08.369Z,99.99
2017-09-20T02:21:21.908Z,99.99
2017-09-20T02:22:35.579Z,99.99
2017-09-20T02:23:49.091Z,99.99
2017-09-20T02:25:02.599Z,99.99
2017-09-20T02:26:16.379Z,99.99
2017-09-20T02:27:29.876Z,99.99
2017-09-20T02:28:43.861Z,99.99
2017-09-20T02:29:57.402Z,99.99
2017-09-20T02:31:11.413Z,99.99
2017-09-20T02:32:25.205Z,99.99
2017-09-20T02:33:38.701Z,99.99
2017-09-20T02:34:52.271Z,99.99
2017-09-20T02:36:06.356Z,99.99
2017-09-20T02:37:20.002Z,99.99
2017-09-20T02:38:33.840Z,99.99
2017-09-20T02:39:47.342Z,99.99
2017-09-20T02:41:00.905Z,99.99
2017-09-20T02:42:14.931Z,99.99
2017-09-20T02:43:28.490Z,99.99
2017-09-20T02:44:42.309Z,99.99
2017-09-20T02:45:55.794Z,99.99
2017-09-20T02:47:09.294Z,99.99
2017-09-20T02:48:23.356Z,99.99
2017-09-20T02:49:36.863Z,99.99
2017-09-20T02:50:50.713Z,99.99
2017-09-20T02:52:04.191Z,99.99
2017-09-20T02:53:17.689Z,99.99
2017-09-20T02:54:31.931Z,99.99
2017-09-20T02:55:46.459Z,99.99
2017-09-20T02:57:00.355Z,99.99
2017-09-20T02:58:26.887Z,99.99
2017-09-20T02:59:40.784Z,99.99
2017-09-20T03:00:54.458Z,99.99
2017-09-20T03:02:07.971Z,99.99
2017-09-20T03:03:21.782Z,99.99
2017-09-20T03:04:35.304Z,99.99
2017-09-20T03:05:48.877Z,99.99
2017-09-20T03:07:02.414Z,99.99
2017-09-20T03:08:15.928Z,99.99
2017-09-20T03:09:29.791Z,99.99
2017-09-20T03:10:44.202Z,99.99
2017-09-20T03:11:57.713Z,99.99
2017-09-20T03:13:14.426Z,99.99
2017-09-20T03:14:33.596Z,99.99
2017-09-20T03:15:47.604Z,99.99
2017-09-20T03:17:01.135Z,99.99
2017-09-20T03:18:14.696Z,99.99
2017-09-20T03:19:28.249Z,99.99
2017-09-20T03:20:41.863Z,99.99
2017-09-20T03:21:55.736Z,99.99
2017-09-20T03:23:09.316Z,99.99
2017-09-20T03:24:24.002Z,99.99
2017-09-20T03:25:37.955Z,99.99
2017-09-20T03:26:52.005Z,99.99
2017-09-20T03:28:06.508Z,99.99
2017-09-20T03:29:20.751Z,99.99
2017-09-20T03:30:35.637Z,99.99
2017-09-20T03:31:49.882Z,99.99
2017-09-20T03:33:05.558Z,99.99
2017-09-20T03:34:20.058Z,99.99
2017-09-20T03:35:34.536Z,99.99
2017-09-20T03:36:48.562Z,99.99
2017-09-20T03:38:02.430Z,99.99
2017-09-20T03:39:15.926Z,99.99
2017-09-20T03:40:29.783Z,99.99
2017-09-20T03:41:44.263Z,99.99
2017-09-20T03:42:57.761Z,99.99
2017-09-20T03:44:11.255Z,99.99
2017-09-20T03:45:24.773Z,99.99
2017-09-20T03:46:38.555Z,99.99
2017-09-20T03:47:52.046Z,99.99
2017-09-20T03:49:05.766Z,99.99
2017-09-20T03:50:19.392Z,99.99
2017-09-20T03:51:32.869Z,99.99
2017-09-20T03:52:46.694Z,99.99
2017-09-20T03:54:00.176Z,99.99
2017-09-20T03:55:14.048Z,99.99
2017-09-20T03:56:27.546Z,99.99
2017-09-20T03:57:41.142Z,99.99
2017-09-20T03:58:54.933Z,99.99
2017-09-20T04:00:08.471Z,99.99
2017-09-20T04:01:22.107Z,99.99
2017-09-20T04:02:35.985Z,99.99
2017-09-20T04:03:49.723Z,99.99
2017-09-20T04:05:03.541Z,99.99
2017-09-20T04:06:17.664Z,99.99
2017-09-20T04:07:31.151Z,99.99
2017-09-20T04:08:44.634Z,99.99
2017-09-20T04:09:58.418Z,99.99
2017-09-20T04:11:12.326Z,99.99
2017-09-20T04:12:26.180Z,99.99
2017-09-20T04:13:39.994Z,99.99
2017-09-20T04:14:53.536Z,99.99
2017-09-20T04:16:07.134Z,99.99
2017-09-20T04:17:21.417Z,99.99
2017-09-20T04:18:34.965Z,99.99
2017-09-20T04:19:48.451Z,99.99
2017-09-20T04:21:01.996Z,99.99
2017-09-20T04:22:15.587Z,99.99
2017-09-20T04:23:29.523Z,99.99
2017-09-20T04:24:44.199Z,99.99
2017-09-20T04:25:57.739Z,99.99
2017-09-20T04:27:11.596Z,99.99
2017-09-20T04:28:25.102Z,99.99
2017-09-20T04:29:39.582Z,99.99
2017-09-20T04:30:53.485Z,99.99
2017-09-20T04:32:07.090Z,99.99
2017-09-20T04:33:20.599Z,99.99
2017-09-20T04:34:34.105Z,99.99
2017-09-20T04:35:47.919Z,99.99
2017-09-20T04:37:01.429Z,99.99
2017-09-20T04:38:14.935Z,99.99
2017-09-20T04:39:28.418Z,99.99
2017-09-20T04:40:41.893Z,99.99
2017-09-20T04:41:56.225Z,99.99
2017-09-20T04:43:10.096Z,99.99
2017-09-20T04:44:23.610Z,99.99
2017-09-20T04:45:37.309Z,99.99
2017-09-20T04:46:50.813Z,99.99
2017-09-20T04:48:04.657Z,99.99
2017-09-20T04:49:18.793Z,99.99
2017-09-20T04:50:32.609Z,99.99
2017-09-20T04:51:46.312Z,99.99
2017-09-20T04:53:00.001Z,99.99
2017-09-20T04:54:13.791Z,99.99
2017-09-20T04:55:27.300Z,99.99
2017-09-20T04:56:41.071Z,99.99
2017-09-20T04:57:54.784Z,99.99
2017-09-20T04:59:08.304Z,99.99
2017-09-20T05:00:22.118Z,99.99
2017-09-20T05:01:35.602Z,99.99
2017-09-20T05:02:49.782Z,99.99
2017-09-20T05:04:03.662Z,99.99
2017-09-20T05:05:17.539Z,99.99
2017-09-20T05:06:31.736Z,99.99
2017-09-20T05:07:45.225Z,99.99
2017-09-20T05:08:59.382Z,99.99
2017-09-20T05:10:13.101Z,99.99
2017-09-20T05:11:26.586Z,99.99
2017-09-20T05:12:40.395Z,99.99
2017-09-20T05:13:53.915Z,99.99
2017-09-20T05:15:07.432Z,99.99
2017-09-20T05:16:21.144Z,99.99
2017-09-20T05:17:34.676Z,99.99
2017-09-20T05:18:49.076Z,99.99
2017-09-20T05:20:02.579Z,99.99
2017-09-20T05:21:16.183Z,99.99
2017-09-20T05:22:30.527Z,99.99
2017-09-20T05:23:44.273Z,99.99
2017-09-20T05:24:58.182Z,99.99
2017-09-20T05:26:11.673Z,99.99
2017-09-20T05:27:25.261Z,99.99
2017-09-20T05:28:38.768Z,99.99
2017-09-20T05:29:52.425Z,99.99
2017-09-20T05:31:06.233Z,99.99
2017-09-20T05:32:19.740Z,99.99
2017-09-20T05:33:33.822Z,99.99
2017-09-20T05:34:48.060Z,99.99
2017-09-20T05:36:01.569Z,99.99
2017-09-20T05:37:15.943Z,99.99
2017-09-20T05:38:29.576Z,99.99
2017-09-20T05:39:44.485Z,99.99
2017-09-20T05:40:58.632Z,99.99
2017-09-20T05:42:12.585Z,99.99
2017-09-20T05:43:34.888Z,99.99
2017-09-20T05:44:48.633Z,99.99
2017-09-20T05:46:02.506Z,99.99
2017-09-20T05:47:16.041Z,99.99
2017-09-20T05:48:29.907Z,99.99
2017-09-20T05:49:44.235Z,99.99
2017-09-20T05:50:57.711Z,99.99
2017-09-20T05:52:11.261Z,99.99
2017-09-20T05:53:24.906Z,99.99
2017-09-20T05:54:38.499Z,99.99
2017-09-20T05:55:52.631Z,99.99
2017-09-20T05:57:06.151Z,99.99
2017-09-20T05:58:20.043Z,99.99
2017-09-20T05:59:33.521Z,99.99
2017-09-20T06:00:47.094Z,99.99
2017-09-20T06:02:01.011Z,99.99
2017-09-20T06:03:14.709Z,99.99
2017-09-20T06:04:28.865Z,99.99
2017-09-20T06:05:42.715Z,99.99
2017-09-20T06:06:56.277Z,99.99
2017-09-20T06:08:10.165Z,99.99
2017-09-20T06:09:24.067Z,99.99
2017-09-20T06:10:37.588Z,99.99
2017-09-20T06:11:51.165Z,99.99
2017-09-20T06:13:04.710Z,99.99
2017-09-20T06:14:18.839Z,99.99
2017-09-20T06:15:32.371Z,99.99
2017-09-20T06:16:45.876Z,99.99
2017-09-20T06:17:59.562Z,99.99
2017-09-20T06:19:13.096Z,99.99
2017-09-20T06:20:26.963Z,99.99
2017-09-20T06:21:40.523Z,99.99
2017-09-20T06:22:54.237Z,99.99
2017-09-20T06:24:07.732Z,99.99
2017-09-20T06:25:21.702Z,99.99
2017-09-20T06:26:36.385Z,99.99
2017-09-20T06:27:49.938Z,99.99
2017-09-20T06:29:03.661Z,99.99
2017-09-20T06:30:17.429Z,99.99
2017-09-20T06:31:31.084Z,99.99
2017-09-20T06:32:44.947Z,99.99
2017-09-20T06:33:58.494Z,99.99
2017-09-20T06:35:12.198Z,99.99
2017-09-20T06:36:25.764Z,99.99
2017-09-20T06:37:39.707Z,99.99
2017-09-20T06:38:53.582Z,99.99
2017-09-20T06:40:07.185Z,99.99
2017-09-20T06:41:20.806Z,99.99
2017-09-20T06:42:34.409Z,99.99
2017-09-20T06:43:48.587Z,99.99
2017-09-20T06:45:02.497Z,99.99
2017-09-20T06:46:16.041Z,99.99
2017-09-20T06:47:30.619Z,99.99
2017-09-20T06:48:44.221Z,99.99
2017-09-20T06:49:58.487Z,99.99
2017-09-20T06:51:12.409Z,99.99
2017-09-20T06:52:26.499Z,99.99
2017-09-20T06:53:40.626Z,99.99
2017-09-20T06:54:54.192Z,99.99
2017-09-20T06:56:07.773Z,99.99
2017-09-20T06:57:21.782Z,99.99
2017-09-20T06:58:35.311Z,99.99
2017-09-20T06:59:49.068Z,99.99
2017-09-20T07:01:02.920Z,99.99
2017-09-20T07:02:16.451Z,99.99
2017-09-20T07:03:30.268Z,99.99
2017-09-20T07:04:44.261Z,99.99
2017-09-20T07:05:58.148Z,99.99
2017-09-20T07:07:11.683Z,99.99
2017-09-20T07:08:25.305Z,99.99
2017-09-20T07:09:39.886Z,99.99
2017-09-20T07:10:53.421Z,99.99
2017-09-20T07:12:07.422Z,99.99
2017-09-20T07:13:21.429Z,99.99
2017-09-20T07:14:35.360Z,99.99
2017-09-20T07:15:49.418Z,99.99
2017-09-20T07:17:03.368Z,99.99
2017-09-20T07:18:17.254Z,99.99
2017-09-20T07:19:31.347Z,99.99
2017-09-20T07:20:45.582Z,99.99
2017-09-20T07:21:59.229Z,99.99
2017-09-20T07:23:12.752Z,99.99
2017-09-20T07:24:26.599Z,99.99
2017-09-20T07:25:40.221Z,99.99
2017-09-20T07:26:53.982Z,99.99
2017-09-20T07:28:08.236Z,99.99
2017-09-20T07:29:21.868Z,99.99
2017-09-20T07:30:36.139Z,99.99
2017-09-20T07:31:50.738Z,99.99
2017-09-20T07:33:04.478Z,99.99
2017-09-20T07:34:18.496Z,99.99
2017-09-20T07:35:32.837Z,99.99
2017-09-20T07:36:47.396Z,99.99
2017-09-20T07:38:01.689Z,99.99
2017-09-20T07:39:15.435Z,99.99
2017-09-20T07:40:29.603Z,99.99
2017-09-20T07:41:43.223Z,99.99
2017-09-20T07:42:56.813Z,99.99
2017-09-20T07:44:10.373Z,99.99
2017-09-20T07:45:23.932Z,99.99
2017-09-20T07:46:37.850Z,99.99
2017-09-20T07:47:52.058Z,99.99
2017-09-20T07:49:05.670Z,99.99
2017-09-20T07:50:19.185Z,99.99
2017-09-20T07:51:33.025Z,99.99
2017-09-20T07:52:46.839Z,99.99
2017-09-20T07:54:00.629Z,99.99
2017-09-20T07:55:14.322Z,99.99
2017-09-20T07:56:27.853Z,99.99
2017-09-20T07:57:41.409Z,99.99
2017-09-20T07:58:55.344Z,99.99
2017-09-20T08:00:08.915Z,99.99
2017-09-20T08:01:22.636Z,99.99
2017-09-20T08:02:36.226Z,99.99
2017-09-20T08:03:49.799Z,99.99
2017-09-20T08:05:04.142Z,99.99
2017-09-20T08:06:18.510Z,99.99
2017-09-20T08:07:32.976Z,99.99
2017-09-20T08:09:05.741Z,99.99
2017-09-20T08:10:19.571Z,99.99
2017-09-20T08:11:33.101Z,99.99
2017-09-20T08:12:47.615Z,99.99
2017-09-20T08:14:01.185Z,99.99
2017-09-20T08:15:15.197Z,99.99
2017-09-20T08:16:29.021Z,99.99
2017-09-20T08:17:42.702Z,99.99
2017-09-20T08:18:56.584Z,99.99
2017-09-20T08:20:10.124Z,99.99
2017-09-20T08:21:23.947Z,99.99
2017-09-20T08:22:37.725Z,99.99
2017-09-20T08:23:51.221Z,99.99
2017-09-20T08:25:04.771Z,99.99
2017-09-20T08:26:19.095Z,99.99
2017-09-20T08:27:32.706Z,99.99
2017-09-20T08:28:47.131Z,99.99
2017-09-20T08:30:01.232Z,99.99
2017-09-20T08:31:14.744Z,99.99
2017-09-20T08:32:28.461Z,99.99
2017-09-20T08:33:42.024Z,99.99
2017-09-20T08:34:55.866Z,99.99
2017-09-20T08:36:09.381Z,99.99
2017-09-20T08:37:23.673Z,99.99
2017-09-20T08:38:37.289Z,99.99
2017-09-20T08:39:51.125Z,99.99
2017-09-20T08:41:04.614Z,99.99
2017-09-20T08:42:18.519Z,99.99
2017-09-20T08:43:32.710Z,99.99
2017-09-20T08:44:46.209Z,99.99
2017-09-20T08:45:59.735Z,99.99
2017-09-20T08:47:13.700Z,99.99
2017-09-20T08:48:27.326Z,99.99
2017-09-20T08:49:40.829Z,99.99
2017-09-20T08:50:54.391Z,99.99
2017-09-20T08:52:08.113Z,99.99
2017-09-20T08:53:22.397Z,99.99
2017-09-20T08:54:36.235Z,99.99
2017-09-20T08:55:49.749Z,99.99
2017-09-20T08:57:03.296Z,99.99
2017-09-20T08:58:16.942Z,99.99
2017-09-20T08:59:30.895Z,99.99
2017-09-20T09:00:44.456Z,99.99
2017-09-20T09:01:58.004Z,99.99
2017-09-20T09:03:11.538Z,99.99
2017-09-20T09:04:25.159Z,99.99
2017-09-20T09:05:38.990Z,99.99
2017-09-20T09:06:52.530Z,99.99
2017-09-20T09:08:06.151Z,99.99
2017-09-20T09:09:19.679Z,99.99
2017-09-20T09:10:52.438Z,99.99
2017-09-20T09:12:06.255Z,99.99
2017-09-20T09:13:20.402Z,99.99
2017-09-20T09:14:33.998Z,99.99
2017-09-20T09:15:47.728Z,99.99
2017-09-20T09:17:01.289Z,99.99
2017-09-20T09:18:15.085Z,99.99
2017-09-20T09:19:28.606Z,99.99
2017-09-20T09:20:42.186Z,99.99
2017-09-20T09:21:56.562Z,99.99
2017-09-20T09:23:10.118Z,99.99
2017-09-20T09:24:24.327Z,99.99
2017-09-20T09:25:37.896Z,99.99
2017-09-20T09:26:51.633Z,99.99
2017-09-20T09:28:05.160Z,99.99
2017-09-20T09:29:18.904Z,99.99
2017-09-20T09:30:32.745Z,99.99
2017-09-20T09:31:46.284Z,99.99
2017-09-20T09:32:59.848Z,99.99
2017-09-20T09:34:14.032Z,99.99
2017-09-20T09:35:28.049Z,99.99
2017-09-20T09:36:41.888Z,99.99
2017-09-20T09:37:55.428Z,99.99
2017-09-20T09:39:08.978Z,99.99
2017-09-20T09:40:22.675Z,99.99
2017-09-20T09:41:36.900Z,99.99
2017-09-20T09:42:51.140Z,99.99
2017-09-20T09:44:05.538Z,99.99
2017-09-20T09:45:19.513Z,99.99
2017-09-20T09:46:33.049Z,99.99
2017-09-20T09:47:46.969Z,99.99
2017-09-20T09:49:01.293Z,99.99
2017-09-20T09:50:14.895Z,99.99
2017-09-20T09:51:29.089Z,99.99
2017-09-20T09:52:42.668Z,99.99
2017-09-20T09:53:56.273Z,99.99
2017-09-20T09:55:10.034Z,99.99
2017-09-20T09:56:23.958Z,99.99
2017-09-20T09:57:37.536Z,99.99
2017-09-20T09:58:51.071Z,99.99
2017-09-20T10:00:04.954Z,99.99
2017-09-20T10:01:19.111Z,99.99
2017-09-20T10:02:32.654Z,99.99
2017-09-20T10:03:46.170Z,99.99
2017-09-20T10:04:59.760Z,99.99
2017-09-20T10:06:14.467Z,99.99
2017-09-20T10:07:28.207Z,99.99
2017-09-20T10:08:41.723Z,99.99
2017-09-20T10:09:55.365Z,99.99
2017-09-20T10:11:09.627Z,98.43
2017-09-20T10:12:23.491Z,97.56
2017-09-20T10:13:37.654Z,98.57
2017-09-20T10:14:51.239Z,98
2017-09-20T10:16:05.019Z,96.27
2017-09-20T10:17:18.588Z,96.85
2017-09-20T10:18:32.425Z,95.36
2017-09-20T10:19:46.304Z,95.94
2017-09-20T10:20:59.872Z,94.4
2017-09-20T10:22:13.598Z,94.12
2017-09-20T10:23:27.486Z,96.18
2017-09-20T10:25:00.463Z,96.27
2017-09-20T10:26:14.074Z,97.38
2017-09-20T10:27:27.941Z,97.47
2017-09-20T10:28:41.815Z,95.31
2017-09-20T10:29:55.685Z,94.07
2017-09-20T10:31:09.984Z,94.98
2017-09-20T10:32:24.354Z,94.4
2017-09-20T10:33:38.135Z,93.93
2017-09-20T10:34:51.750Z,95.17
2017-09-20T10:36:05.417Z,95.94
2017-09-20T10:37:19.328Z,96.42
2017-09-20T10:38:33.836Z,97.09
2017-09-20T10:39:47.400Z,97.09
2017-09-20T10:41:01.201Z,96.99
2017-09-20T10:42:15.422Z,96.99
2017-09-20T10:43:29.924Z,97.38
2017-09-20T10:44:44.266Z,98.33
2017-09-20T10:45:57.977Z,97.09
2017-09-20T10:47:11.896Z,97.28
2017-09-20T10:48:25.530Z,97.95
2017-09-20T10:49:39.094Z,97.66
2017-09-20T10:50:53.259Z,97.38
2017-09-20T10:52:06.792Z,97.09
2017-09-20T10:53:20.777Z,97.09
2017-09-20T10:54:34.793Z,96.51
2017-09-20T10:55:49.609Z,96.7
2017-09-20T10:57:03.790Z,96.22
2017-09-20T10:58:17.693Z,97.09
2017-09-20T10:59:31.587Z,96.61
2017-09-20T11:00:45.184Z,97.38
2017-09-20T11:01:58.736Z,98.43
2017-09-20T11:03:12.923Z,97.95
2017-09-20T11:04:26.558Z,98.52
2017-09-20T11:05:40.580Z,98.62
2017-09-20T11:06:54.501Z,97.56
2017-09-20T11:08:08.202Z,98.33
2017-09-20T11:09:22.247Z,97.47
2017-09-20T11:10:36.296Z,97.95
2017-09-20T11:11:49.982Z,97.38
2017-09-20T11:13:03.517Z,97.56
2017-09-20T11:14:17.865Z,96.42
2017-09-20T11:15:32.509Z,96.51
2017-09-20T11:16:47.434Z,96.18
2017-09-20T11:18:02.470Z,95.79
2017-09-20T11:19:16.118Z,96.08
2017-09-20T11:20:30.427Z,97.42
2017-09-20T11:21:45.029Z,96.18
2017-09-20T11:22:58.995Z,95.89
2017-09-20T11:24:13.944Z,95.89
2017-09-20T11:25:27.799Z,95.98
2017-09-20T11:26:42.507Z,94.88
2017-09-20T11:27:56.528Z,95.07
2017-09-20T11:29:10.927Z,94.69
2017-09-20T11:30:24.961Z,94.4
2017-09-20T11:31:38.771Z,93.73
2017-09-20T11:32:52.938Z,92.96
2017-09-20T11:34:06.841Z,92.14
2017-09-20T11:35:20.599Z,92.63
2017-09-20T11:36:34.528Z,92.05
2017-09-20T11:37:48.285Z,92.77
2017-09-20T11:39:01.903Z,92.43
2017-09-20T11:40:22.181Z,92.82
2017-09-20T11:41:36.703Z,93.39
2017-09-20T11:42:50.399Z,93.44
2017-09-20T11:44:04.415Z,94.12
2017-09-20T11:45:18.340Z,94.31
2017-09-20T11:46:33.158Z,94.02
2017-09-20T11:47:46.785Z,93.01
2017-09-20T11:49:00.432Z,93.2
2017-09-20T11:50:14.181Z,93.49
2017-09-20T11:51:27.745Z,93.25
2017-09-20T11:52:41.797Z,92.33
2017-09-20T11:53:55.362Z,91.61
2017-09-20T11:55:09.528Z,92.19
2017-09-20T11:56:23.312Z,91.81
2017-09-20T11:57:36.952Z,91.52
2017-09-20T11:58:51.095Z,91.33
2017-09-20T12:00:05.302Z,90.94
2017-09-20T12:01:19.621Z,90.6
2017-09-20T12:02:33.387Z,90.22
2017-09-20T12:03:47.624Z,90.12
2017-09-20T12:05:03.904Z,89.54
2017-09-20T12:06:17.635Z,89.45
2017-09-20T12:07:31.256Z,89.5
2017-09-20T12:08:45.129Z,90.12
2017-09-20T12:09:59.555Z,90.12
2017-09-20T12:11:14.146Z,89.93
2017-09-20T12:12:27.864Z,89.89
2017-09-20T12:13:41.454Z,90.27
2017-09-20T12:14:55.513Z,90.27
2017-09-20T12:16:09.253Z,90.17
2017-09-20T12:17:23.652Z,90.46
2017-09-20T12:18:37.177Z,90.32
2017-09-20T12:19:50.765Z,91.33
2017-09-20T12:21:04.364Z,91.57
2017-09-20T12:22:17.956Z,91.57
2017-09-20T12:23:33.843Z,91.09
2017-09-20T12:24:48.079Z,92.24
2017-09-20T12:26:01.640Z,91.66
2017-09-20T12:27:15.459Z,91.38
2017-09-20T12:28:29.074Z,90.8
2017-09-20T12:29:43.918Z,91.61
2017-09-20T12:31:44.499Z,91.86
2017-09-20T12:32:58.299Z,91.38
2017-09-20T12:34:12.222Z,91.66
2017-09-20T12:35:27.070Z,92.33
2017-09-20T12:36:40.620Z,93.15
2017-09-20T12:37:54.290Z,92.58
2017-09-20T12:39:07.901Z,91.72
2017-09-20T12:40:22.008Z,92.1
2017-09-20T12:41:35.947Z,94.21
2017-09-20T12:42:49.664Z,94.98
2017-09-20T12:44:03.322Z,97.38
2017-09-20T12:45:16.956Z,95.17
2017-09-20T12:46:30.914Z,94.69
2017-09-20T12:47:44.853Z,94.21
2017-09-20T12:48:59.447Z,92.39
2017-09-20T12:50:13.047Z,91.96
2017-09-20T12:51:28.018Z,92.24
2017-09-20T12:52:41.853Z,92.05
2017-09-20T12:53:56.166Z,90.84
2017-09-20T12:55:10.204Z,90.75
2017-09-20T12:56:23.756Z,90.37
2017-09-20T12:57:37.406Z,90.46
2017-09-20T12:58:50.983Z,89.02
2017-09-20T13:00:05.208Z,89.5
2017-09-20T13:01:19.125Z,88.45
2017-09-20T13:02:33.060Z,89.07
2017-09-20T13:03:46.834Z,89.98
2017-09-20T13:05:01.158Z,91.19
2017-09-20T13:06:15.592Z,92.53
2017-09-20T13:07:29.170Z,92.86
2017-09-20T13:08:43.499Z,92.48
2017-09-20T13:09:58.246Z,92.14
2017-09-20T13:11:12.533Z,92.05
2017-09-20T13:12:26.795Z,91.76
2017-09-20T13:13:44.004Z,91.57
2017-09-20T13:14:57.641Z,92.33
2017-09-20T13:16:12.164Z,92.05
2017-09-20T13:17:26.118Z,92.24
2017-09-20T13:18:41.123Z,92.24
2017-09-20T13:19:55.260Z,92
2017-09-20T13:21:10.198Z,92.14
2017-09-20T13:22:24.425Z,91.96
2017-09-20T13:23:38.066Z,91.47
2017-09-20T13:24:52.248Z,91.05
2017-09-20T13:26:05.833Z,91.28
2017-09-20T13:27:20.490Z,91.81
2017-09-20T13:28:34.286Z,91.66
2017-09-20T13:29:47.971Z,91.47
2017-09-20T13:31:02.661Z,91.28
2017-09-20T13:32:16.650Z,91.28
2017-09-20T13:33:30.541Z,91.76
2017-09-20T13:34:44.144Z,91.76
2017-09-20T13:35:58.268Z,92.33
2017-09-20T13:37:13.276Z,93.68
2017-09-20T13:38:27.148Z,94.35
2017-09-20T13:39:40.871Z,94.83
2017-09-20T13:40:56.427Z,95.03
2017-09-20T13:42:10.707Z,95.5
2017-09-20T13:43:24.703Z,95.5
2017-09-20T13:44:38.318Z,95.12
2017-09-20T13:45:52.245Z,95.41
2017-09-20T13:47:06.316Z,94.64
2017-09-20T13:48:20.104Z,94.54
2017-09-20T13:49:34.618Z,95.31
2017-09-20T13:50:48.915Z,94.45
2017-09-20T13:52:02.631Z,94.64
2017-09-20T13:53:17.122Z,93.92
2017-09-20T13:54:30.937Z,93.25
2017-09-20T13:55:44.988Z,91.9
2017-09-20T13:56:58.787Z,91.71
2017-09-20T13:58:19.913Z,92.48
2017-09-20T13:59:33.685Z,92.1
2017-09-20T14:00:47.653Z,93.25
2017-09-20T14:02:01.676Z,93.73
2017-09-20T14:03:47.499Z,93.44
2017-09-20T14:05:01.067Z,92.19
2017-09-20T14:06:14.702Z,91.71
2017-09-20T14:07:29.104Z,91.52
2017-09-20T14:08:43.711Z,90.94
2017-09-20T14:09:57.695Z,91.61
2017-09-20T14:11:12.218Z,91.61
2017-09-20T14:12:26.043Z,91.61
2017-09-20T14:13:40.200Z,91.04
2017-09-20T14:14:53.795Z,92
2017-09-20T14:16:07.743Z,92.19
2017-09-20T14:17:21.363Z,91.13
2017-09-20T14:18:34.933Z,90.37
2017-09-20T14:19:49.563Z,90.84
2017-09-20T14:21:03.476Z,90.94
2017-09-20T14:22:17.090Z,89.79
2017-09-20T14:23:30.738Z,90.27
2017-09-20T14:24:44.703Z,91.52
2017-09-20T14:25:58.725Z,92.1
2017-09-20T14:27:12.389Z,93.49
2017-09-20T14:28:25.916Z,93.68
2017-09-20T14:29:40.052Z,94.59
2017-09-20T14:30:54.847Z,94.69
2017-09-20T14:32:08.672Z,94.69
2017-09-20T14:33:22.315Z,95.46
2017-09-20T14:34:36.406Z,96.03
2017-09-20T14:35:50.675Z,97.14
2017-09-20T14:37:04.917Z,97.33
2017-09-20T14:38:20.183Z,97.61
2017-09-20T14:39:34.092Z,97.33
2017-09-20T14:40:48.374Z,97.04
2017-09-20T14:42:02.172Z,97.23
2017-09-20T14:43:17.036Z,97.33
2017-09-20T14:44:31.055Z,97.71
2017-09-20T14:45:44.994Z,98.48
2017-09-20T14:46:59.159Z,99.82
2017-09-20T14:48:14.754Z,99.73
2017-09-20T14:49:28.597Z,99.99
2017-09-20T14:50:42.900Z,99.99
2017-09-20T14:51:56.725Z,99.99
2017-09-20T14:53:10.389Z,99.99
2017-09-20T14:54:44.563Z,99.49
2017-09-20T14:55:58.171Z,99.29
2017-09-20T14:57:12.779Z,98.62
2017-09-20T14:58:26.305Z,98.24
2017-09-20T14:59:40.388Z,97.95
2017-09-20T15:00:54.019Z,98.62
2017-09-20T15:02:08.155Z,99.91
2017-09-20T15:03:21.835Z,99.99
2017-09-20T15:04:35.916Z,99.44
2017-09-20T15:05:49.615Z,98.86
2017-09-20T15:07:03.211Z,99.82
2017-09-20T15:08:16.850Z,99.44
2017-09-20T15:09:31.063Z,98.96
2017-09-20T15:10:44.692Z,98.57
2017-09-20T15:11:58.235Z,99.63
2017-09-20T15:13:12.257Z,99.99
2017-09-20T15:14:26.279Z,99.99
2017-09-20T15:15:40.897Z,99.99
2017-09-20T15:16:55.298Z,99.99
2017-09-20T15:18:09.118Z,99.99
2017-09-20T15:19:22.815Z,99.99
2017-09-20T15:20:36.881Z,99.99
2017-09-20T15:21:50.941Z,99.99
2017-09-20T15:23:04.493Z,99.99
2017-09-20T15:24:18.288Z,99.99
2017-09-20T15:25:32.134Z,99.99
2017-09-20T15:26:45.667Z,99.99
2017-09-20T15:27:59.934Z,99.99
2017-09-20T15:29:13.499Z,99.99
2017-09-20T15:30:27.348Z,99.99
2017-09-20T15:31:41.703Z,99.99
2017-09-20T15:32:55.387Z,99.99
2017-09-20T15:34:09.590Z,99.99
2017-09-20T15:35:23.564Z,99.99
2017-09-20T15:36:37.061Z,99.99
2017-09-20T15:37:50.655Z,99.99
2017-09-20T15:39:04.398Z,99.99
2017-09-20T15:40:18.778Z,99.99
2017-09-20T15:41:32.396Z,99.99
2017-09-20T15:42:45.954Z,99.99
2017-09-20T15:43:59.702Z,99.99
2017-09-20T15:45:14.099Z,99.99
2017-09-20T15:47:03.174Z,99.99
2017-09-20T15:48:17.108Z,99.99
2017-09-20T15:49:31.124Z,99.99
2017-09-20T15:50:45.014Z,99.99
2017-09-20T15:51:58.898Z,99.99
2017-09-20T15:53:12.460Z,99.99
2017-09-20T15:54:26.378Z,99.99
2017-09-20T15:55:40.410Z,99.99
2017-09-20T15:56:54.115Z,99.99